createdAt,value
2022-07-26T00:00:54.521Z,22.42
2022-07-26T00:01:57.431Z,22.34
2022-07-26T00:03:00.322Z,22.31
2022-07-26T00:04:03.326Z,22.23
2022-07-26T00:05:07.120Z,22.21
2022-07-26T00:06:10.381Z,22.28
2022-07-26T00:07:13.270Z,22.20
2022-07-26T00:08:16.143Z,22.20
2022-07-26T00:09:18.937Z,22.13
2022-07-26T00:10:21.692Z,22.20
2022-07-26T00:11:25.826Z,22.29
2022-07-26T00:12:28.652Z,22.19
2022-07-26T00:13:31.591Z,22.19
2022-07-26T00:14:34.328Z,22.17
2022-07-26T00:15:38.470Z,22.11
2022-07-26T00:16:41.642Z,22.14
2022-07-26T00:17:44.527Z,22.13
2022-07-26T00:18:48.049Z,22.02
2022-07-26T00:19:50.931Z,22.15
2022-07-26T00:20:53.851Z,22.00
2022-07-26T00:22:17.018Z,21.97
2022-07-26T00:23:19.898Z,21.97
2022-07-26T00:24:22.727Z,21.93
2022-07-26T00:25:25.505Z,21.73
2022-07-26T00:26:31.909Z,21.69
2022-07-26T00:27:37.528Z,21.62
2022-07-26T00:28:41.548Z,21.72
2022-07-26T00:29:44.358Z,21.83
2022-07-26T00:30:47.773Z,21.81
2022-07-26T00:31:50.620Z,21.92
2022-07-26T00:32:53.519Z,21.95
2022-07-26T00:33:56.374Z,22.13
2022-07-26T00:34:59.172Z,22.23
2022-07-26T00:36:08.038Z,22.44
2022-07-26T00:37:10.832Z,22.42
2022-07-26T00:38:13.734Z,22.45
2022-07-26T00:39:16.491Z,22.55
2022-07-26T00:40:19.320Z,22.57
2022-07-26T00:41:22.090Z,22.57
2022-07-26T00:42:24.896Z,22.67
2022-07-26T00:43:27.629Z,22.73
2022-07-26T00:44:45.948Z,22.72
2022-07-26T00:45:50.322Z,22.67
2022-07-26T00:46:53.358Z,22.76
2022-07-26T00:47:56.344Z,22.77
2022-07-26T00:48:59.251Z,22.72
2022-07-26T00:50:02.613Z,22.70
2022-07-26T00:51:05.389Z,22.88
2022-07-26T00:52:10.477Z,22.76
2022-07-26T00:53:13.229Z,22.63
2022-07-26T00:54:17.851Z,22.61
2022-07-26T00:55:21.156Z,22.64
2022-07-26T00:56:24.055Z,22.75
2022-07-26T00:57:26.981Z,22.76
2022-07-26T00:58:29.744Z,22.72
2022-07-26T00:59:32.952Z,22.78
2022-07-26T01:00:35.761Z,22.80
2022-07-26T01:01:38.716Z,22.92
2022-07-26T01:02:42.321Z,22.98
2022-07-26T01:03:45.458Z,23.06
2022-07-26T01:04:48.554Z,23.13
2022-07-26T01:05:51.487Z,23.28
2022-07-26T01:06:56.064Z,23.26
2022-07-26T01:07:59.169Z,23.23
2022-07-26T01:09:03.530Z,23.35
2022-07-26T01:10:12.270Z,23.46
2022-07-26T01:11:15.020Z,23.52
2022-07-26T01:12:18.476Z,23.48
2022-07-26T01:13:22.306Z,23.46
2022-07-26T01:14:26.068Z,23.45
2022-07-26T01:15:28.863Z,23.58
2022-07-26T01:16:31.981Z,23.67
2022-07-26T01:17:38.128Z,23.69
2022-07-26T01:18:41.468Z,23.68
2022-07-26T01:19:44.341Z,23.64
2022-07-26T01:20:48.787Z,23.65
2022-07-26T01:21:52.072Z,23.70
2022-07-26T01:22:54.801Z,23.70
2022-07-26T01:23:57.798Z,23.65
2022-07-26T01:25:00.596Z,23.58
2022-07-26T01:26:04.060Z,23.65
2022-07-26T01:27:07.215Z,23.70
2022-07-26T01:28:09.946Z,23.68
2022-07-26T01:29:12.627Z,23.75
2022-07-26T01:30:15.525Z,23.86
2022-07-26T01:31:18.510Z,23.87
2022-07-26T01:32:22.045Z,23.77
2022-07-26T01:33:28.256Z,23.72
2022-07-26T01:34:31.232Z,23.72
2022-07-26T01:35:34.056Z,23.81
2022-07-26T01:36:36.782Z,23.82
2022-07-26T01:37:42.497Z,23.97
2022-07-26T01:38:45.405Z,23.89
2022-07-26T01:39:48.151Z,23.91
2022-07-26T01:40:50.833Z,23.86
2022-07-26T01:41:54.419Z,23.95
2022-07-26T01:43:00.973Z,23.90
2022-07-26T01:44:09.050Z,24.02
2022-07-26T01:45:12.981Z,24.00
2022-07-26T01:46:15.758Z,24.12
2022-07-26T01:47:18.859Z,24.04
2022-07-26T01:48:21.640Z,24.06
2022-07-26T01:49:24.428Z,24.13
2022-07-26T01:50:27.348Z,24.07
2022-07-26T01:51:30.185Z,24.05
2022-07-26T01:52:33.493Z,24.04
2022-07-26T01:53:37.167Z,23.99
2022-07-26T01:54:40.044Z,24.03
2022-07-26T01:55:42.955Z,24.05
2022-07-26T01:56:45.780Z,23.98
2022-07-26T01:57:48.516Z,23.91
2022-07-26T01:58:51.280Z,24.01
2022-07-26T01:59:55.757Z,23.99
2022-07-26T02:00:58.548Z,24.00
2022-07-26T02:02:01.497Z,23.90
2022-07-26T02:03:04.525Z,23.95
2022-07-26T02:04:29.981Z,23.94
2022-07-26T02:05:32.657Z,23.83
2022-07-26T02:06:35.560Z,23.80
2022-07-26T02:07:44.568Z,23.75
2022-07-26T02:08:47.654Z,23.70
2022-07-26T02:09:50.567Z,23.54
2022-07-26T02:11:03.675Z,23.47
2022-07-26T02:12:06.940Z,23.33
2022-07-26T02:13:09.676Z,23.27
2022-07-26T02:14:12.395Z,23.08
2022-07-26T02:15:29.500Z,23.13
2022-07-26T02:16:32.265Z,23.09
2022-07-26T02:17:35.161Z,23.04
2022-07-26T02:18:38.644Z,23.14
2022-07-26T02:19:41.448Z,22.94
2022-07-26T02:20:45.329Z,22.90
2022-07-26T02:21:48.140Z,22.90
2022-07-26T02:22:50.792Z,22.89
2022-07-26T02:23:53.550Z,22.71
2022-07-26T02:24:59.491Z,22.58
2022-07-26T02:26:04.591Z,22.53
2022-07-26T02:27:07.368Z,22.68
2022-07-26T02:28:12.262Z,22.53
2022-07-26T02:30:22.355Z,22.72
2022-07-26T02:31:25.048Z,22.68
2022-07-26T02:32:35.356Z,22.56
2022-07-26T02:33:38.060Z,22.42
2022-07-26T02:34:40.858Z,22.30
2022-07-26T02:35:44.207Z,22.28
2022-07-26T02:36:46.994Z,22.28
2022-07-26T02:37:52.953Z,22.15
2022-07-26T02:38:56.026Z,22.32
2022-07-26T02:39:58.727Z,22.19
2022-07-26T02:41:01.529Z,22.17
2022-07-26T02:42:04.327Z,22.19
2022-07-26T02:43:08.587Z,22.02
2022-07-26T02:44:11.568Z,22.01
2022-07-26T02:45:14.570Z,21.86
2022-07-26T02:46:17.549Z,21.93
2022-07-26T02:47:20.915Z,21.81
2022-07-26T02:48:23.589Z,21.91
2022-07-26T02:49:26.517Z,21.76
2022-07-26T02:50:29.885Z,21.64
2022-07-26T02:51:32.753Z,21.62
2022-07-26T02:52:35.448Z,21.73
2022-07-26T02:53:38.093Z,21.64
2022-07-26T02:54:40.800Z,21.64
2022-07-26T02:55:43.638Z,21.67
2022-07-26T02:56:46.437Z,21.56
2022-07-26T02:57:49.556Z,21.51
2022-07-26T02:58:54.128Z,21.53
2022-07-26T02:59:57.204Z,21.57
2022-07-26T03:00:59.871Z,21.50
2022-07-26T03:02:02.770Z,21.52
2022-07-26T03:03:05.569Z,21.53
2022-07-26T03:04:08.845Z,21.55
2022-07-26T03:05:11.907Z,21.60
2022-07-26T03:06:14.900Z,21.52
2022-07-26T03:07:17.935Z,21.51
2022-07-26T03:08:21.075Z,21.52
2022-07-26T03:09:24.136Z,21.50
2022-07-26T03:10:27.064Z,21.47
2022-07-26T03:11:29.899Z,21.42
2022-07-26T03:12:32.646Z,21.53
2022-07-26T03:13:35.400Z,21.53
2022-07-26T03:14:38.199Z,21.50
2022-07-26T03:15:41.264Z,21.48
2022-07-26T03:16:44.033Z,21.45
2022-07-26T03:17:46.731Z,21.47
2022-07-26T03:18:49.456Z,21.49
2022-07-26T03:19:52.273Z,21.46
2022-07-26T03:20:55.538Z,21.42
2022-07-26T03:21:59.413Z,21.50
2022-07-26T03:23:03.238Z,21.48
2022-07-26T03:24:06.573Z,21.56
2022-07-26T03:25:09.693Z,21.54
2022-07-26T03:26:12.668Z,21.62
2022-07-26T03:27:15.385Z,21.52
2022-07-26T03:28:19.653Z,21.53
2022-07-26T03:29:22.556Z,21.53
2022-07-26T03:30:26.535Z,21.56
2022-07-26T03:31:29.589Z,21.54
2022-07-26T03:32:32.415Z,21.54
2022-07-26T03:33:35.041Z,21.48
2022-07-26T03:34:37.933Z,21.56
2022-07-26T03:35:44.001Z,21.57
2022-07-26T03:36:47.576Z,21.57
2022-07-26T03:37:50.425Z,21.53
2022-07-26T03:38:53.394Z,21.71
2022-07-26T03:39:56.236Z,21.66
2022-07-26T03:40:59.190Z,21.61
2022-07-26T03:42:02.000Z,21.66
2022-07-26T03:43:04.667Z,21.73
2022-07-26T03:44:07.683Z,21.66
2022-07-26T03:45:10.958Z,21.62
2022-07-26T03:46:17.096Z,21.70
2022-07-26T03:47:20.038Z,21.65
2022-07-26T03:48:22.791Z,21.65
2022-07-26T03:49:26.600Z,21.71
2022-07-26T03:50:29.502Z,21.81
2022-07-26T03:51:34.227Z,21.84
2022-07-26T03:52:37.075Z,21.94
2022-07-26T03:53:39.743Z,21.98
2022-07-26T03:54:42.506Z,22.04
2022-07-26T03:56:07.653Z,22.07
2022-07-26T03:57:10.597Z,22.13
2022-07-26T03:58:20.430Z,22.23
2022-07-26T03:59:25.709Z,22.28
2022-07-26T04:00:28.599Z,22.33
2022-07-26T04:01:32.071Z,22.36
2022-07-26T04:02:34.878Z,22.42
2022-07-26T04:03:37.784Z,22.62
2022-07-26T04:04:40.914Z,22.62
2022-07-26T04:05:48.975Z,22.66
2022-07-26T04:06:52.102Z,22.73
2022-07-26T04:07:55.896Z,22.73
2022-07-26T04:08:58.805Z,22.73
2022-07-26T04:10:01.555Z,22.72
2022-07-26T04:11:04.428Z,22.78
2022-07-26T04:12:07.329Z,22.83
2022-07-26T04:13:10.123Z,22.86
2022-07-26T04:14:12.885Z,22.89
2022-07-26T04:15:17.285Z,22.88
2022-07-26T04:16:20.278Z,22.88
2022-07-26T04:17:26.249Z,22.81
2022-07-26T04:18:29.155Z,22.84
2022-07-26T04:19:31.837Z,22.90
2022-07-26T04:20:34.820Z,22.98
2022-07-26T04:21:37.570Z,23.10
2022-07-26T04:22:45.527Z,23.10
2022-07-26T04:23:51.368Z,23.14
2022-07-26T04:24:54.531Z,23.28
2022-07-26T04:25:57.350Z,23.39
2022-07-26T04:27:00.125Z,23.44
2022-07-26T04:28:03.419Z,23.49
2022-07-26T04:29:06.183Z,23.55
2022-07-26T04:30:15.089Z,23.62
2022-07-26T04:31:18.622Z,23.72
2022-07-26T04:32:21.474Z,23.77
2022-07-26T04:33:24.622Z,23.84
2022-07-26T04:34:27.435Z,23.91
2022-07-26T04:35:30.139Z,24.00
2022-07-26T04:36:33.170Z,23.96
2022-07-26T04:37:42.984Z,23.73
2022-07-26T04:38:45.758Z,23.90
2022-07-26T04:39:52.948Z,23.62
2022-07-26T04:40:58.214Z,23.34
2022-07-26T04:42:00.994Z,23.07
2022-07-26T04:43:07.205Z,22.98
2022-07-26T04:44:12.686Z,23.01
2022-07-26T04:45:15.589Z,23.10
2022-07-26T04:46:19.527Z,23.32
2022-07-26T04:47:22.329Z,23.24
2022-07-26T04:48:26.036Z,23.07
2022-07-26T04:49:28.699Z,23.00
2022-07-26T04:50:31.360Z,23.01
2022-07-26T04:51:34.161Z,23.01
2022-07-26T04:52:36.844Z,23.07
2022-07-26T04:53:41.174Z,23.24
2022-07-26T04:54:44.005Z,23.29
2022-07-26T04:55:46.886Z,23.29
2022-07-26T04:56:50.274Z,23.37
2022-07-26T04:57:54.207Z,23.37
2022-07-26T04:58:56.936Z,23.39
2022-07-26T05:00:20.269Z,23.47
2022-07-26T05:01:22.628Z,23.45
2022-07-26T05:02:25.473Z,23.31
2022-07-26T05:03:28.415Z,23.23
2022-07-26T05:04:32.190Z,23.30
2022-07-26T05:05:35.055Z,23.29
2022-07-26T05:06:41.219Z,23.21
2022-07-26T05:07:46.124Z,23.34
2022-07-26T05:08:49.389Z,23.27
2022-07-26T05:09:52.202Z,23.35
2022-07-26T05:10:55.825Z,23.47
2022-07-26T05:11:59.260Z,23.53
2022-07-26T05:13:07.749Z,23.49
2022-07-26T05:14:12.192Z,23.53
2022-07-26T05:15:15.758Z,23.72
2022-07-26T05:16:18.777Z,23.91
2022-07-26T05:17:21.668Z,23.92
2022-07-26T05:18:24.766Z,23.91
2022-07-26T05:19:27.380Z,24.10
2022-07-26T05:20:30.318Z,24.20
2022-07-26T05:21:33.052Z,24.21
2022-07-26T05:22:36.917Z,24.25
2022-07-26T05:23:39.777Z,24.28
2022-07-26T05:24:42.590Z,24.23
2022-07-26T05:25:45.310Z,24.28
2022-07-26T05:26:48.088Z,24.30
2022-07-26T05:27:50.913Z,24.34
2022-07-26T05:28:54.492Z,24.45
2022-07-26T05:29:57.258Z,24.39
2022-07-26T05:31:00.061Z,24.37
2022-07-26T05:32:02.909Z,24.33
2022-07-26T05:33:05.652Z,24.35
2022-07-26T05:34:08.627Z,24.36
2022-07-26T05:35:11.527Z,24.46
2022-07-26T05:36:14.306Z,24.43
2022-07-26T05:37:17.510Z,24.42
2022-07-26T05:38:20.941Z,24.44
2022-07-26T05:39:23.799Z,24.41
2022-07-26T05:40:26.686Z,24.33
2022-07-26T05:41:29.477Z,24.42
2022-07-26T05:42:32.244Z,24.56
2022-07-26T05:43:41.506Z,24.70
2022-07-26T05:44:44.966Z,24.73
2022-07-26T05:45:47.941Z,24.83
2022-07-26T05:46:51.153Z,24.88
2022-07-26T05:47:53.916Z,25.17
2022-07-26T05:48:56.759Z,25.22
2022-07-26T05:49:59.601Z,25.31
2022-07-26T05:51:02.424Z,25.29
2022-07-26T05:52:05.578Z,25.32
2022-07-26T05:53:08.344Z,25.38
2022-07-26T05:54:11.764Z,25.56
2022-07-26T05:55:15.103Z,25.50
2022-07-26T05:56:18.417Z,25.52
2022-07-26T05:57:21.561Z,25.54
2022-07-26T05:58:24.843Z,25.61
2022-07-26T05:59:28.004Z,25.88
2022-07-26T06:00:31.321Z,25.76
2022-07-26T06:01:35.305Z,25.75
2022-07-26T06:02:39.651Z,25.86
2022-07-26T06:03:43.001Z,25.95
2022-07-26T06:04:47.380Z,26.04
2022-07-26T06:05:53.994Z,26.07
2022-07-26T06:06:57.250Z,26.10
2022-07-26T06:08:00.450Z,26.18
2022-07-26T06:09:04.158Z,26.13
2022-07-26T06:10:07.805Z,26.10
2022-07-26T06:11:11.548Z,26.21
2022-07-26T06:12:14.757Z,26.33
2022-07-26T06:13:18.255Z,26.38
2022-07-26T06:14:21.392Z,26.23
2022-07-26T06:15:24.530Z,26.14
2022-07-26T06:16:28.586Z,26.33
2022-07-26T06:17:32.047Z,26.48
2022-07-26T06:18:35.857Z,26.55
2022-07-26T06:19:39.850Z,26.78
2022-07-26T06:20:45.802Z,26.85
2022-07-26T06:21:48.878Z,26.88
2022-07-26T06:22:52.764Z,26.67
2022-07-26T06:23:55.840Z,26.75
2022-07-26T06:24:59.052Z,26.92
2022-07-26T06:26:02.697Z,26.91
2022-07-26T06:27:05.865Z,26.84
2022-07-26T06:28:10.804Z,26.94
2022-07-26T06:29:13.974Z,27.04
2022-07-26T06:30:17.185Z,26.94
2022-07-26T06:31:20.436Z,26.85
2022-07-26T06:32:23.744Z,26.71
2022-07-26T06:33:26.818Z,26.77
2022-07-26T06:34:30.272Z,26.75
2022-07-26T06:35:35.847Z,26.76
2022-07-26T06:36:39.023Z,26.69
2022-07-26T06:37:43.621Z,26.70
2022-07-26T06:38:46.684Z,26.75
2022-07-26T06:39:52.838Z,26.92
2022-07-26T06:40:55.954Z,27.04
2022-07-26T06:41:58.963Z,27.15
2022-07-26T06:43:04.555Z,27.25
2022-07-26T06:44:08.417Z,27.26
2022-07-26T06:45:12.164Z,27.11
2022-07-26T06:46:15.452Z,27.00
2022-07-26T06:47:18.536Z,26.87
2022-07-26T06:48:21.656Z,26.90
2022-07-26T06:49:24.894Z,27.10
2022-07-26T06:50:28.089Z,27.00
2022-07-26T06:51:31.052Z,27.12
2022-07-26T06:52:34.646Z,27.00
2022-07-26T06:53:37.862Z,27.11
2022-07-26T06:54:40.986Z,27.31
2022-07-26T06:55:44.171Z,27.30
2022-07-26T06:56:49.325Z,27.19
2022-07-26T06:57:52.400Z,27.10
2022-07-26T06:58:56.627Z,27.21
2022-07-26T06:59:59.704Z,27.17
2022-07-26T07:01:02.937Z,27.12
2022-07-26T07:02:06.378Z,27.10
2022-07-26T07:03:09.530Z,27.25
2022-07-26T07:04:12.760Z,27.52
2022-07-26T07:05:16.143Z,27.68
2022-07-26T07:06:19.345Z,27.73
2022-07-26T07:07:22.386Z,27.81
2022-07-26T07:08:29.649Z,27.97
2022-07-26T07:09:33.953Z,28.08
2022-07-26T07:10:37.382Z,28.16
2022-07-26T07:11:40.838Z,28.33
2022-07-26T07:12:45.493Z,28.38
2022-07-26T07:13:48.819Z,28.52
2022-07-26T07:14:52.048Z,28.48
2022-07-26T07:15:55.200Z,28.54
2022-07-26T07:16:58.732Z,28.47
2022-07-26T07:18:02.267Z,28.63
2022-07-26T07:19:05.500Z,28.66
2022-07-26T07:20:09.054Z,28.77
2022-07-26T07:21:12.149Z,28.75
2022-07-26T07:22:15.458Z,28.75
2022-07-26T07:23:18.554Z,28.77
2022-07-26T07:24:21.903Z,28.98
2022-07-26T07:25:30.402Z,28.95
2022-07-26T07:26:34.518Z,29.18
2022-07-26T07:27:43.525Z,29.21
2022-07-26T07:28:47.043Z,29.18
2022-07-26T07:29:52.027Z,29.06
2022-07-26T07:30:55.122Z,29.09
2022-07-26T07:31:58.243Z,29.13
2022-07-26T07:33:01.415Z,29.22
2022-07-26T07:34:07.073Z,29.11
2022-07-26T07:35:12.850Z,29.24
2022-07-26T07:36:19.464Z,29.33
2022-07-26T07:37:22.783Z,29.27
2022-07-26T07:38:26.041Z,28.94
2022-07-26T07:39:34.968Z,29.15
2022-07-26T07:40:45.596Z,29.28
2022-07-26T07:41:49.113Z,29.48
2022-07-26T07:42:52.381Z,29.60
2022-07-26T07:43:55.648Z,29.67
2022-07-26T07:44:58.818Z,29.68
2022-07-26T07:46:01.959Z,29.84
2022-07-26T07:47:10.609Z,29.83
2022-07-26T07:48:13.888Z,29.82
2022-07-26T07:49:17.238Z,29.65
2022-07-26T07:50:20.590Z,29.56
2022-07-26T07:51:23.935Z,29.37
2022-07-26T07:52:29.971Z,29.22
2022-07-26T07:53:33.149Z,29.40
2022-07-26T07:54:36.503Z,29.40
2022-07-26T07:55:41.171Z,29.51
2022-07-26T07:56:47.377Z,29.52
2022-07-26T07:57:54.529Z,29.16
2022-07-26T07:58:57.522Z,28.74
2022-07-26T08:00:01.285Z,28.62
2022-07-26T08:01:05.240Z,28.50
2022-07-26T08:02:09.628Z,28.79
2022-07-26T08:03:12.769Z,29.16
2022-07-26T08:04:21.347Z,29.22
2022-07-26T08:05:24.830Z,29.06
2022-07-26T08:06:28.197Z,29.30
2022-07-26T08:07:33.059Z,29.22
2022-07-26T08:08:39.622Z,28.83
2022-07-26T08:09:43.295Z,28.57
2022-07-26T08:10:51.768Z,28.48
2022-07-26T08:11:55.729Z,28.67
2022-07-26T08:12:59.563Z,28.78
2022-07-26T08:14:02.918Z,28.62
2022-07-26T08:15:08.390Z,28.66
2022-07-26T08:16:11.853Z,28.79
2022-07-26T08:17:15.090Z,28.73
2022-07-26T08:18:19.516Z,28.34
2022-07-26T08:19:26.517Z,28.39
2022-07-26T08:20:44.067Z,28.46
2022-07-26T08:21:47.438Z,28.40
2022-07-26T08:22:50.772Z,28.63
2022-07-26T08:23:54.009Z,28.35
2022-07-26T08:24:57.122Z,27.98
2022-07-26T08:26:04.768Z,28.15
2022-07-26T08:27:10.051Z,28.06
2022-07-26T08:28:30.589Z,27.80
2022-07-26T08:29:36.365Z,28.18
2022-07-26T08:30:39.661Z,28.31
2022-07-26T08:31:42.791Z,28.21
2022-07-26T08:32:45.841Z,28.14
2022-07-26T08:33:49.546Z,28.49
2022-07-26T08:34:52.532Z,28.82
2022-07-26T08:35:58.531Z,28.93
2022-07-26T08:37:16.483Z,29.07
2022-07-26T08:38:20.754Z,29.38
2022-07-26T08:39:23.778Z,29.66
2022-07-26T08:40:26.829Z,29.71
2022-07-26T08:41:31.448Z,29.65
2022-07-26T08:42:34.563Z,29.79
2022-07-26T08:43:48.887Z,29.78
2022-07-26T08:44:55.799Z,29.81
2022-07-26T08:46:04.910Z,29.91
2022-07-26T08:47:11.591Z,29.55
2022-07-26T08:48:17.641Z,29.61
2022-07-26T08:49:21.406Z,29.82
2022-07-26T08:50:26.373Z,29.93
2022-07-26T08:51:31.214Z,30.15
2022-07-26T08:52:35.038Z,30.19
2022-07-26T08:53:39.379Z,30.41
2022-07-26T08:54:48.917Z,30.49
2022-07-26T08:56:06.956Z,30.75
2022-07-26T08:57:10.730Z,30.90
2022-07-26T08:58:14.022Z,31.07
2022-07-26T08:59:21.971Z,31.12
2022-07-26T09:00:32.377Z,30.82
2022-07-26T09:01:35.734Z,30.64
2022-07-26T09:02:42.092Z,30.96
2022-07-26T09:03:46.203Z,30.67
2022-07-26T09:04:49.447Z,30.73
2022-07-26T09:05:54.300Z,31.26
2022-07-26T09:06:59.726Z,31.45
2022-07-26T09:08:27.098Z,31.45
2022-07-26T09:09:30.784Z,31.21
2022-07-26T09:10:39.161Z,31.21
2022-07-26T09:11:42.878Z,31.15
2022-07-26T09:12:49.433Z,30.73
2022-07-26T09:14:04.011Z,30.43
2022-07-26T09:15:17.892Z,30.23
2022-07-26T09:16:21.388Z,29.99
2022-07-26T09:17:29.399Z,29.87
2022-07-26T09:18:32.476Z,29.88
2022-07-26T09:19:35.734Z,29.80
2022-07-26T09:20:47.583Z,29.39
2022-07-26T09:21:52.427Z,29.39
2022-07-26T09:22:58.498Z,29.33
2022-07-26T09:24:04.658Z,28.92
2022-07-26T09:25:21.864Z,29.05
2022-07-26T09:26:25.076Z,28.94
2022-07-26T09:27:37.170Z,28.60
2022-07-26T09:28:45.023Z,28.44
2022-07-26T09:29:54.534Z,28.48
2022-07-26T09:31:03.540Z,28.13
2022-07-26T09:32:20.076Z,28.06
2022-07-26T09:33:23.284Z,28.08
2022-07-26T09:34:27.229Z,27.67
2022-07-26T09:35:51.378Z,27.36
2022-07-26T09:36:58.561Z,27.05
2022-07-26T09:38:12.546Z,26.63
2022-07-26T09:39:15.990Z,26.49
2022-07-26T09:40:23.046Z,26.50
2022-07-26T09:41:31.649Z,26.45
2022-07-26T09:42:36.363Z,26.33
2022-07-26T09:43:42.611Z,26.10
2022-07-26T09:44:48.117Z,25.28
2022-07-26T09:46:05.461Z,25.01
2022-07-26T09:47:08.962Z,24.96
2022-07-26T09:48:12.598Z,24.88
2022-07-26T09:49:21.107Z,24.46
2022-07-26T09:50:28.231Z,24.23
2022-07-26T09:51:46.453Z,24.26
2022-07-26T09:53:13.599Z,24.40
2022-07-26T09:54:36.289Z,24.38
2022-07-26T09:55:45.487Z,24.10
2022-07-26T09:56:51.046Z,23.92
2022-07-26T09:57:54.860Z,24.01
2022-07-26T09:58:58.001Z,23.92
2022-07-26T10:00:06.441Z,23.77
2022-07-26T10:01:11.553Z,23.68
2022-07-26T10:02:14.945Z,23.66
2022-07-26T10:03:18.007Z,23.53
2022-07-26T10:04:21.814Z,23.21
2022-07-26T10:05:26.191Z,23.31
2022-07-26T10:06:30.597Z,23.10
2022-07-26T10:07:33.988Z,23.03
2022-07-26T10:08:39.551Z,22.79
2022-07-26T10:09:50.114Z,22.81
2022-07-26T10:10:58.921Z,22.88
2022-07-26T10:12:06.671Z,22.69
2022-07-26T10:13:11.482Z,22.62
2022-07-26T10:14:33.346Z,22.59
2022-07-26T10:15:46.871Z,22.63
2022-07-26T10:16:50.506Z,22.62
2022-07-26T10:17:55.416Z,22.70
2022-07-26T10:18:58.967Z,22.86
2022-07-26T10:20:17.079Z,22.60
2022-07-26T10:21:27.679Z,22.64
2022-07-26T10:22:51.024Z,22.75
2022-07-26T10:23:59.334Z,22.82
2022-07-26T10:25:21.456Z,23.17
2022-07-26T10:26:46.009Z,23.21
2022-07-26T10:27:52.061Z,23.04
2022-07-26T10:28:58.484Z,23.29
2022-07-26T10:30:19.881Z,23.26
2022-07-26T10:31:26.798Z,23.57
2022-07-26T10:32:32.985Z,23.62
2022-07-26T10:33:44.958Z,23.57
2022-07-26T10:34:50.125Z,23.65
2022-07-26T10:35:53.288Z,23.51
2022-07-26T10:37:02.593Z,23.62
2022-07-26T10:38:09.308Z,23.86
2022-07-26T10:39:16.772Z,23.80
2022-07-26T10:40:22.894Z,23.87
2022-07-26T10:41:59.025Z,23.59
2022-07-26T10:44:42.406Z,23.12
2022-07-26T10:45:45.658Z,23.31
2022-07-26T10:47:00.852Z,23.27
2022-07-26T10:48:19.039Z,23.25
2022-07-26T10:49:40.981Z,23.14
2022-07-26T10:50:49.020Z,23.00
2022-07-26T10:52:06.958Z,23.02
2022-07-26T10:53:11.909Z,23.09
2022-07-26T10:54:17.006Z,23.13
2022-07-26T10:55:20.245Z,22.93
2022-07-26T10:56:23.523Z,22.98
2022-07-26T10:57:35.140Z,23.12
2022-07-26T10:58:47.208Z,23.05
2022-07-26T10:59:57.797Z,22.92
2022-07-26T11:01:05.047Z,22.98
2022-07-26T11:02:18.916Z,22.97
2022-07-26T11:03:22.394Z,23.05
2022-07-26T11:04:26.154Z,23.07
2022-07-26T11:05:32.485Z,22.86
2022-07-26T11:06:35.699Z,22.90
2022-07-26T11:07:48.220Z,22.88
2022-07-26T11:08:51.639Z,22.84
2022-07-26T11:10:02.519Z,22.78
2022-07-26T11:11:08.186Z,22.82
2022-07-26T11:12:18.696Z,22.83
2022-07-26T11:13:26.665Z,22.80
2022-07-26T11:14:29.841Z,22.81
2022-07-26T11:15:36.445Z,23.01
2022-07-26T11:16:47.892Z,23.20
2022-07-26T11:17:50.951Z,23.19
2022-07-26T11:18:54.249Z,23.21
2022-07-26T11:19:59.487Z,23.12
2022-07-26T11:21:14.373Z,23.07
2022-07-26T11:22:17.558Z,23.16
2022-07-26T11:23:24.095Z,23.21
2022-07-26T11:24:28.819Z,23.10
2022-07-26T11:25:32.641Z,22.81
2022-07-26T11:26:46.795Z,22.93
2022-07-26T11:28:07.122Z,22.94
2022-07-26T11:29:39.217Z,23.21
2022-07-26T11:31:00.407Z,23.09
2022-07-26T11:32:19.054Z,23.04
2022-07-26T11:33:36.300Z,23.05
2022-07-26T11:34:39.341Z,23.17
2022-07-26T11:35:51.465Z,23.19
2022-07-26T11:36:57.757Z,23.07
2022-07-26T11:38:11.537Z,23.15
2022-07-26T11:39:23.583Z,23.17
2022-07-26T11:40:46.449Z,23.09
2022-07-26T11:41:50.721Z,23.00
2022-07-26T11:42:54.810Z,22.98
2022-07-26T11:44:02.202Z,22.94
2022-07-26T11:45:10.405Z,22.94
2022-07-26T11:46:13.896Z,23.00
2022-07-26T11:47:20.543Z,22.94
2022-07-26T11:48:24.129Z,22.94
2022-07-26T11:51:11.809Z,23.26
2022-07-26T11:52:15.505Z,23.32
2022-07-26T11:53:28.586Z,23.28
2022-07-26T11:54:34.223Z,23.06
2022-07-26T11:55:37.260Z,23.31
2022-07-26T11:56:58.045Z,23.08
2022-07-26T11:58:10.534Z,23.06
2022-07-26T11:59:17.721Z,22.93
2022-07-26T12:00:22.147Z,23.16
2022-07-26T12:01:27.074Z,23.15
2022-07-26T12:02:30.975Z,23.21
2022-07-26T12:03:41.361Z,22.96
2022-07-26T12:04:45.682Z,23.02
2022-07-26T12:06:04.057Z,23.30
2022-07-26T12:07:11.477Z,23.26
2022-07-26T12:08:14.973Z,23.05
2022-07-26T12:09:33.719Z,23.28
2022-07-26T12:10:36.964Z,23.35
2022-07-26T12:11:42.431Z,23.36
2022-07-26T12:12:45.824Z,23.28
2022-07-26T12:14:00.827Z,23.46
2022-07-26T12:15:08.238Z,23.48
2022-07-26T12:16:11.729Z,23.36
2022-07-26T12:17:17.170Z,23.34
2022-07-26T12:18:28.473Z,23.38
2022-07-26T12:19:34.759Z,23.60
2022-07-26T12:20:37.958Z,23.34
2022-07-26T12:21:53.446Z,23.59
2022-07-26T12:23:06.342Z,23.73
2022-07-26T12:24:10.828Z,23.88
2022-07-26T12:25:25.652Z,23.87
2022-07-26T12:26:31.726Z,23.86
2022-07-26T12:27:34.960Z,23.95
2022-07-26T12:28:42.014Z,23.82
2022-07-26T12:29:47.532Z,23.87
2022-07-26T12:30:50.607Z,24.13
2022-07-26T12:32:32.755Z,23.87
2022-07-26T12:33:48.527Z,23.99
2022-07-26T12:35:01.448Z,24.16
2022-07-26T12:36:18.736Z,23.92
2022-07-26T12:37:40.619Z,23.92
2022-07-26T12:38:45.245Z,23.97
2022-07-26T12:40:12.510Z,23.88
2022-07-26T12:42:53.769Z,23.72
2022-07-26T12:44:00.738Z,23.88
2022-07-26T12:45:06.811Z,23.93
2022-07-26T12:46:10.577Z,24.04
2022-07-26T12:47:13.977Z,24.10
2022-07-26T12:48:17.203Z,23.93
2022-07-26T12:49:20.420Z,23.66
2022-07-26T12:50:27.126Z,23.54
2022-07-26T12:51:30.250Z,23.48
2022-07-26T12:52:34.164Z,23.61
2022-07-26T12:53:37.471Z,23.56
2022-07-26T12:54:46.562Z,23.60
2022-07-26T12:55:49.838Z,23.47
2022-07-26T12:56:55.680Z,23.65
2022-07-26T12:57:59.981Z,23.85
2022-07-26T12:59:03.519Z,23.94
2022-07-26T13:00:09.730Z,24.04
2022-07-26T13:01:13.064Z,24.51
2022-07-26T13:02:18.615Z,24.90
2022-07-26T13:03:21.883Z,25.33
2022-07-26T13:04:25.100Z,25.98
2022-07-26T13:05:28.367Z,26.42
2022-07-26T13:06:33.218Z,26.65
2022-07-26T13:07:37.319Z,26.74
2022-07-26T13:08:40.510Z,26.83
2022-07-26T13:09:44.898Z,26.97
2022-07-26T13:10:48.071Z,27.30
2022-07-26T13:11:51.506Z,27.28
2022-07-26T13:12:54.653Z,27.41
2022-07-26T13:13:57.842Z,27.33
2022-07-26T13:15:00.916Z,27.22
2022-07-26T13:16:09.597Z,27.02
2022-07-26T13:17:18.235Z,27.15
2022-07-26T13:18:22.470Z,26.70
2022-07-26T13:19:25.794Z,26.71
2022-07-26T13:20:29.078Z,26.63
2022-07-26T13:21:33.476Z,26.27
2022-07-26T13:22:36.991Z,26.16
2022-07-26T13:23:40.165Z,26.30
2022-07-26T13:24:43.256Z,26.26
2022-07-26T13:25:47.339Z,26.35
2022-07-26T13:26:50.673Z,26.26
2022-07-26T13:27:55.310Z,26.20
2022-07-26T13:28:58.938Z,26.31
2022-07-26T13:30:02.263Z,26.04
2022-07-26T13:31:05.889Z,25.89
2022-07-26T13:32:09.190Z,25.61
2022-07-26T13:33:12.804Z,25.76
2022-07-26T13:34:16.049Z,25.68
2022-07-26T13:35:19.120Z,25.78
2022-07-26T13:36:22.405Z,25.56
2022-07-26T13:37:27.421Z,25.62
2022-07-26T13:38:33.837Z,25.79
2022-07-26T13:39:36.903Z,25.77
2022-07-26T13:40:40.111Z,25.66
2022-07-26T13:41:43.547Z,25.89
2022-07-26T13:42:46.781Z,25.96
2022-07-26T13:43:51.500Z,25.91
2022-07-26T13:44:54.692Z,25.51
2022-07-26T13:45:58.408Z,25.52
2022-07-26T13:47:02.455Z,25.47
2022-07-26T13:48:06.061Z,25.45
2022-07-26T13:49:12.921Z,25.49
2022-07-26T13:50:16.956Z,25.45
2022-07-26T13:51:20.018Z,25.50
2022-07-26T13:52:23.169Z,25.49
2022-07-26T13:53:26.402Z,25.41
2022-07-26T13:54:32.048Z,25.58
2022-07-26T13:55:35.753Z,25.42
2022-07-26T13:56:40.522Z,25.49
2022-07-26T13:57:52.941Z,25.46
2022-07-26T13:59:00.015Z,25.56
2022-07-26T14:00:05.984Z,25.28
2022-07-26T14:01:09.629Z,25.24
2022-07-26T14:02:12.944Z,25.27
2022-07-26T14:03:19.605Z,25.46
2022-07-26T14:04:23.640Z,25.37
2022-07-26T14:05:28.803Z,25.32
2022-07-26T14:06:32.142Z,25.46
2022-07-26T14:07:35.665Z,25.54
2022-07-26T14:08:38.922Z,25.75